sensor_id;sensor_type;location;lat;lon;timestamp;pressure;altitude;pressure_sealevel;temperature;humidity
76205;BME280;64986;55.672;37.628;2024-03-22T10:08:13;99521.09;;;18.68;nan
76205;BME280;64986;55.672;37.628;2024-03-22T10:17:58;99480.22;;;20.23;nan
76205;BME280;64986;55.672;37.628;2024-03-22T10:20:23;99591.72;;;20.94;nan
76205;BME280;64986;55.672;37.628;2024-03-22T10:22:55;99511.72;;;20.77;nan
76205;BME280;64986;55.672;37.628;2024-03-22T10:25:23;99498.53;;;22.10;nan
76205;BME280;64986;55.672;37.628;2024-03-22T10:27:49;99501.56;;;20.79;nan
76205;BME280;64986;55.672;37.628;2024-03-22T10:30:16;99493.53;;;19.77;nan
76205;BME280;64986;55.672;37.628;2024-03-22T10:32:43;99482.63;;;20.04;nan
76205;BME280;64986;55.672;37.628;2024-03-22T10:35:13;99474.88;;;20.08;nan
76205;BME280;64986;55.672;37.628;2024-03-22T10:37:39;99475.13;;;20.27;nan
76205;BME280;64986;55.672;37.628;2024-03-22T10:40:06;99470.56;;;21.43;nan
76205;BME280;64986;55.672;37.628;2024-03-22T10:42:39;99481.28;;;20.58;nan
76205;BME280;64986;55.672;37.628;2024-03-22T10:45:06;99467.13;;;20.11;nan
76205;BME280;64986;55.672;37.628;2024-03-22T10:47:34;99472.72;;;19.84;nan
76205;BME280;64986;55.672;37.628;2024-03-22T10:50:10;99462.03;;;20.25;nan
76205;BME280;64986;55.672;37.628;2024-03-22T10:52:48;99452.25;;;21.94;nan
76205;BME280;64986;55.672;37.628;2024-03-22T10:55:23;99453.22;;;22.66;nan
76205;BME280;64986;55.672;37.628;2024-03-22T10:57:53;99451.53;;;22.23;nan
76205;BME280;64986;55.672;37.628;2024-03-22T11:00:27;99446.72;;;21.41;nan
76205;BME280;64986;55.672;37.628;2024-03-22T11:02:53;99444.34;;;22.13;nan
76205;BME280;64986;55.672;37.628;2024-03-22T11:05:19;99443.38;;;21.59;nan
76205;BME280;64986;55.672;37.628;2024-03-22T11:07:45;99430.72;;;22.62;nan
76205;BME280;64986;55.672;37.628;2024-03-22T11:10:14;99426.56;;;22.75;nan
76205;BME280;64986;55.672;37.628;2024-03-22T11:12:40;99412.84;;;23.57;nan
76205;BME280;64986;55.672;37.628;2024-03-22T11:15:07;99423.44;;;23.11;nan
76205;BME280;64986;55.672;37.628;2024-03-22T11:17:34;99416.16;;;24.05;nan
76205;BME280;64986;55.672;37.628;2024-03-22T11:20:00;99423.31;;;23.77;nan
76205;BME280;64986;55.672;37.628;2024-03-22T11:22:26;99411.66;;;24.61;nan
76205;BME280;64986;55.672;37.628;2024-03-22T11:24:54;99409.34;;;24.41;nan
76205;BME280;64986;55.672;37.628;2024-03-22T11:27:20;99395.09;;;24.40;nan
76205;BME280;64986;55.672;37.628;2024-03-22T11:29:46;99400.38;;;24.45;nan
76205;BME280;64986;55.672;37.628;2024-03-22T11:32:12;99400.47;;;25.09;nan
76205;BME280;64986;55.672;37.628;2024-03-22T11:34:38;99406.72;;;25.32;nan
76205;BME280;64986;55.672;37.628;2024-03-22T11:37:07;99407.00;;;23.36;nan
76205;BME280;64986;55.672;37.628;2024-03-22T11:39:36;99393.25;;;23.00;nan
76205;BME280;64986;55.672;37.628;2024-03-22T11:42:04;99395.75;;;21.56;nan
76205;BME280;64986;55.672;37.628;2024-03-22T11:44:31;99392.75;;;22.98;nan
76205;BME280;64986;55.672;37.628;2024-03-22T11:46:57;99374.09;;;23.96;nan
76205;BME280;64986;55.672;37.628;2024-03-22T11:49:24;99367.72;;;25.15;nan
76205;BME280;64986;55.672;37.628;2024-03-22T11:51:51;99366.09;;;25.95;nan
76205;BME280;64986;55.672;37.628;2024-03-22T11:54:19;99351.06;;;27.60;nan
76205;BME280;64986;55.672;37.628;2024-03-22T11:56:45;99342.97;;;27.52;nan
76205;BME280;64986;55.672;37.628;2024-03-22T11:59:11;99333.09;;;27.04;nan
76205;BME280;64986;55.672;37.628;2024-03-22T12:01:36;99337.53;;;27.69;nan
76205;BME280;64986;55.672;37.628;2024-03-22T12:04:02;99324.31;;;26.81;nan
76205;BME280;64986;55.672;37.628;2024-03-22T12:06:28;99326.69;;;26.65;nan
76205;BME280;64986;55.672;37.628;2024-03-22T12:08:53;99323.59;;;27.15;nan
76205;BME280;64986;55.672;37.628;2024-03-22T12:11:19;99319.78;;;27.98;nan
76205;BME280;64986;55.672;37.628;2024-03-22T12:16:10;99307.50;;;28.68;nan
76205;BME280;64986;55.672;37.628;2024-03-22T12:18:35;99311.69;;;27.98;nan
76205;BME280;64986;55.672;37.628;2024-03-22T12:21:01;99301.41;;;27.56;nan
76205;BME280;64986;55.672;37.628;2024-03-22T12:23:27;99288.13;;;26.91;nan
76205;BME280;64986;55.672;37.628;2024-03-22T12:25:53;99275.53;;;27.47;nan
76205;BME280;64986;55.672;37.628;2024-03-22T12:28:20;99274.09;;;28.05;nan
76205;BME280;64986;55.672;37.628;2024-03-22T12:30:47;99278.50;;;27.62;nan
76205;BME280;64986;55.672;37.628;2024-03-22T12:33:12;99264.75;;;26.86;nan
76205;BME280;64986;55.672;37.628;2024-03-22T12:35:39;99270.03;;;27.81;nan
76205;BME280;64986;55.672;37.628;2024-03-22T12:38:06;99253.47;;;26.93;nan
76205;BME280;64986;55.672;37.628;2024-03-22T12:40:31;99253.63;;;26.70;nan
76205;BME280;64986;55.672;37.628;2024-03-22T12:42:58;99250.56;;;27.41;nan
76205;BME280;64986;55.672;37.628;2024-03-22T12:45:24;99242.53;;;28.09;nan
76205;BME280;64986;55.672;37.628;2024-03-22T12:47:50;99236.47;;;26.83;nan
76205;BME280;64986;55.672;37.628;2024-03-22T12:50:15;99252.22;;;26.07;nan
76205;BME280;64986;55.672;37.628;2024-03-22T12:52:41;99235.03;;;26.69;nan
76205;BME280;64986;55.672;37.628;2024-03-22T12:55:09;99232.03;;;28.07;nan
76205;BME280;64986;55.672;37.628;2024-03-22T12:57:35;99225.56;;;28.71;nan
76205;BME280;64986;55.672;37.628;2024-03-22T13:00:00;99234.59;;;27.74;nan
76205;BME280;64986;55.672;37.628;2024-03-22T13:02:26;99221.22;;;27.05;nan
76205;BME280;64986;55.672;37.628;2024-03-22T13:04:52;99234.00;;;27.51;nan
76205;BME280;64986;55.672;37.628;2024-03-22T13:07:21;99227.13;;;27.62;nan
76205;BME280;64986;55.672;37.628;2024-03-22T13:09:46;99218.22;;;27.62;nan
76205;BME280;64986;55.672;37.628;2024-03-22T13:12:12;99226.00;;;27.63;nan
76205;BME280;64986;55.672;37.628;2024-03-22T13:14:38;99211.19;;;26.97;nan
76205;BME280;64986;55.672;37.628;2024-03-22T13:17:03;99214.66;;;27.32;nan
76205;BME280;64986;55.672;37.628;2024-03-22T13:19:29;99206.47;;;28.46;nan
76205;BME280;64986;55.672;37.628;2024-03-22T13:21:55;99203.47;;;25.95;nan
76205;BME280;64986;55.672;37.628;2024-03-22T13:24:20;99198.25;;;25.05;nan
76205;BME280;64986;55.672;37.628;2024-03-22T13:26:46;99201.19;;;24.37;nan
76205;BME280;64986;55.672;37.628;2024-03-22T13:29:12;99194.69;;;24.24;nan
